Thursday, August 16, 2018, 1:56 AM EDT
Back to Local

KITH, Ithaca, Ithaca Tompkins Regional Airport

Location: Ithaca, NY, United States Lat: 42.491
Local Time: 1:56 AM EDT ( 5:56 GMT) Lon: -76.458
Time Zone: US/Eastern Elev: 1099 ft

Show me the last for .
Show Decoded

2018-08-16 00:56 METAR KITH 160456Z AUTO 27007KT 10SM CLR 22/17 A3005 RMK AO2 SLP167 T02170172 =
2018-08-15 23:56 METAR KITH 160356Z AUTO 26004KT 10SM CLR 22/17 A3005 RMK AO2 SLP166 T02220172
                 402890150 =
2018-08-15 22:56 METAR KITH 160256Z AUTO 25004KT 10SM CLR 22/18 A3004 RMK AO2 SLP165 T02170183
                 51014 =
2018-08-15 21:56 METAR KITH 160156Z 29006KT 10SM CLR 22/18 A3004 RMK AO2 SLP164 T02220183 =
2018-08-15 20:56 METAR KITH 160056Z 19003KT 6SM BR SCT042 22/20 A3002 RMK AO2 SLP160 T02170200 =
2018-08-15 19:56 METAR KITH 152356Z 00000KT 9SM CLR 23/22 A3000 RMK AO2 SLP152 T02330217 10289
                 20233 53012 =
2018-08-15 18:56 METAR KITH 152256Z 00000KT 10SM CLR 27/22 A2998 RMK AO2 SLP146 T02670217 =
2018-08-15 17:56 METAR KITH 152156Z 36004KT 10SM SCT050 27/21 A2997 RMK AO2 SLP144 T02670211 =
2018-08-15 16:56 METAR KITH 152056Z 29007KT 10SM FEW040 28/21 A2996 RMK AO2 SLP139 T02830206
                 58006 =
2018-08-15 15:56 METAR KITH 151956Z 30008KT 10SM FEW040 29/21 A2998 RMK AO2 LTG DSNT N SLP143
                 T02890211 =
2018-08-15 14:56 METAR KITH 151856Z 31010KT 10SM FEW040 28/21 A2998 RMK AO2 SLP145 T02830211 =
2018-08-15 13:56 METAR KITH 151756Z 30007KT 10SM SCT060 28/22 A2998 RMK AO2 SLP144 T02830217
                 10283 20189 52000 =
2018-08-15 12:56 METAR KITH 151656Z 28007KT 10SM SCT060 BKN090 27/21 A2998 RMK AO2 SLP144
                 T02720211 =
2018-08-15 11:56 METAR KITH 151556Z 30005KT 10SM FEW055 27/20 A2998 RMK AO2 SLP144 T02670200 =
2018-08-15 10:56 METAR KITH 151456Z 28007KT 10SM CLR 26/21 A2998 RMK AO2 SLP144 T02560206 51006 =
2018-08-15 09:56 METAR KITH 151356Z 00000KT 10SM FEW048 23/19 A2998 RMK AO2 SLP144 T02330194 =
2018-08-15 08:56 METAR KITH 151256Z 19004KT 10SM CLR 21/19 A2997 RMK AO2 SLP142 T02110189 =
2018-08-15 07:56 METAR KITH 151156Z 00000KT 7SM CLR 19/18 A2996 RMK AO2 SLP140 60001 70018
                 T01890183 10189 20150 51013 =
2018-08-15 06:56 METAR KITH 151056Z 00000KT 6SM BR CLR 16/16 A2995 RMK AO2 SLP138 P0001 T01560156
                 =
2018-08-15 06:30 METAR KITH 151030Z 00000KT 6SM BR CLR 15/15 A2994 RMK AO2 P0001 =
2018-08-15 06:26 METAR KITH 151026Z 00000KT 1/2SM FG CLR 15/15 A2994 RMK AO2 P0001 RVRNO =
2018-08-15 06:01 METAR KITH 151001Z AUTO 00000KT 3/4SM BR CLR 15/15 A2994 RMK AO2 VIS 1/4V4 RVRNO
                 =
2018-08-15 05:56 METAR KITH 150956Z AUTO 00000KT 1 1/2SM BR CLR 16/15 A2994 RMK AO2 VIS 3/4V4
                 SLP133 T01560150 =
2018-08-15 05:49 METAR KITH 150949Z AUTO 00000KT 1 3/4SM BR CLR 16/15 A2993 RMK AO2 =
2018-08-15 05:10 METAR KITH 150910Z AUTO 00000KT 6SM BR FEW043 15/15 A2992 RMK AO2 =
2018-08-15 04:56 METAR KITH 150856Z AUTO 00000KT 2SM BR FEW043 16/16 A2992 RMK AO2 SLP128
                 T01560156 53001 =
2018-08-15 04:48 METAR KITH 150848Z AUTO 00000KT 1 1/2SM BR CLR 15/15 A2992 RMK AO2 =
2018-08-15 04:41 METAR KITH 150841Z AUTO 00000KT 2SM BR CLR 15/14 A2992 RMK AO2 =
2018-08-15 04:26 METAR KITH 150826Z AUTO 00000KT 1 1/4SM BR CLR 16/16 A2991 RMK AO2 =
2018-08-15 04:04 METAR KITH 150804Z AUTO 00000KT 1SM BR CLR 16/16 A2991 RMK AO2 VIS 1/2V2 RVRNO =
2018-08-15 03:56 METAR KITH 150756Z AUTO 00000KT 1/2SM FG CLR 16/16 A2992 RMK AO2 SLP127
                 T01560156 RVRNO =
2018-08-15 03:14 METAR KITH 150714Z AUTO 00000KT 1/2SM FG CLR 17/16 A2992 RMK AO2 RVRNO =
2018-08-15 02:56 METAR KITH 150656Z AUTO 00000KT 1SM BR CLR 17/16 A2992 RMK AO2 SLP126 T01670161
                 RVRNO =
2018-08-15 02:45 METAR KITH 150645Z AUTO 00000KT 3/4SM BR CLR 17/16 A2992 RMK AO2 RVRNO =
2018-08-15 02:40 METAR KITH 150640Z AUTO 00000KT 1 1/4SM BR CLR 17/17 A2992 RMK AO2 =
2018-08-15 02:34 METAR KITH 150634Z AUTO 00000KT 3/4SM BR CLR 17/17 A2992 RMK AO2 RVRNO =
2018-08-15 02:14 METAR KITH 150614Z AUTO 00000KT 1 1/2SM BR CLR 17/17 A2992 RMK AO2 =
2018-08-15 02:04 METAR KITH 150604Z AUTO 00000KT 1SM BR CLR 17/17 A2992 RMK AO2 RVRNO =

Support USWX by starting your Amazon purchase here.